createdAt,value
2023-02-17T00:00:09.259Z,-1.67
2023-02-17T00:02:58.960Z,-1.66
2023-02-17T00:05:27.681Z,-1.68
2023-02-17T00:07:55.909Z,-1.68
2023-02-17T00:10:23.980Z,-1.69
2023-02-17T00:12:52.293Z,-1.71
2023-02-17T00:15:20.495Z,-1.74
2023-02-17T00:17:51.370Z,-1.77
2023-02-17T00:20:20.177Z,-1.79
2023-02-17T00:22:48.464Z,-1.82
2023-02-17T00:25:17.225Z,-1.83
2023-02-17T00:27:45.808Z,-1.84
2023-02-17T00:30:14.384Z,-1.84
2023-02-17T00:32:43.131Z,-1.83
2023-02-17T00:35:11.476Z,-1.81
2023-02-17T00:37:45.880Z,-1.79
2023-02-17T00:40:15.378Z,-1.77
2023-02-17T00:42:43.807Z,-1.76
2023-02-17T00:45:12.676Z,-1.75
2023-02-17T00:47:41.192Z,-1.76
2023-02-17T00:50:11.826Z,-1.76
2023-02-17T00:52:40.768Z,-1.79
2023-02-17T00:55:09.311Z,-1.82
2023-02-17T00:57:38.343Z,-1.85
2023-02-17T01:00:07.464Z,-1.89
2023-02-17T01:02:35.955Z,-1.92
2023-02-17T01:05:04.992Z,-1.95
2023-02-17T01:07:33.733Z,-1.99
2023-02-17T01:10:02.637Z,-2.01
2023-02-17T01:12:31.313Z,-2.03
2023-02-17T01:15:01.267Z,-2.05
2023-02-17T01:17:29.984Z,-2.08
2023-02-17T01:19:58.276Z,-2.10
2023-02-17T01:22:27.352Z,-2.09
2023-02-17T01:24:57.088Z,-2.06
2023-02-17T01:27:26.444Z,-2.05
2023-02-17T01:29:56.571Z,-2.04
2023-02-17T01:32:24.856Z,-1.99
2023-02-17T01:34:53.234Z,-1.97
2023-02-17T01:37:21.409Z,-1.96
2023-02-17T01:39:49.882Z,-1.92
2023-02-17T01:42:21.034Z,-1.86
2023-02-17T01:45:18.245Z,-1.81
2023-02-17T01:47:56.855Z,-1.78
2023-02-17T01:50:31.132Z,-1.78
2023-02-17T01:53:01.623Z,-1.77
2023-02-17T01:55:33.135Z,-1.77
2023-02-17T01:58:04.994Z,-1.79
2023-02-17T02:00:36.166Z,-1.81
2023-02-17T02:03:09.083Z,-1.82
2023-02-17T02:05:40.430Z,-1.85
2023-02-17T02:08:11.693Z,-1.87
2023-02-17T02:10:40.966Z,-1.91
2023-02-17T02:13:10.053Z,-1.94
2023-02-17T02:15:48.996Z,-2.01
2023-02-17T02:18:29.565Z,-2.08
2023-02-17T02:21:34.800Z,-2.17
2023-02-17T02:24:26.450Z,-2.25
2023-02-17T02:27:32.700Z,-2.31
2023-02-17T02:30:22.992Z,-2.34
2023-02-17T02:33:00.478Z,-2.35
2023-02-17T02:35:47.687Z,-2.34
2023-02-17T02:38:41.987Z,-2.31
2023-02-17T02:41:25.909Z,-2.27
2023-02-17T02:43:54.106Z,-2.22
2023-02-17T02:46:22.789Z,-2.18
2023-02-17T02:48:52.101Z,-2.14
2023-02-17T02:51:35.139Z,-2.10
2023-02-17T02:54:13.200Z,-2.05
2023-02-17T02:56:41.660Z,-2.07
2023-02-17T02:59:33.006Z,-2.09
2023-02-17T03:02:34.128Z,-2.07
2023-02-17T03:05:27.888Z,-2.06
2023-02-17T03:08:09.228Z,-2.08
2023-02-17T03:10:46.423Z,-2.13
2023-02-17T03:13:15.410Z,-2.17
2023-02-17T03:15:44.696Z,-2.22
2023-02-17T03:18:13.365Z,-2.29
2023-02-17T03:20:56.668Z,-2.37
2023-02-17T03:23:26.556Z,-2.45
2023-02-17T03:25:54.774Z,-2.52
2023-02-17T03:28:23.052Z,-2.58
2023-02-17T03:30:51.968Z,-2.65
2023-02-17T03:33:20.353Z,-2.71
2023-02-17T03:35:48.532Z,-2.77
2023-02-17T03:38:17.590Z,-2.81
2023-02-17T03:40:45.860Z,-2.84
2023-02-17T03:43:14.298Z,-2.87
2023-02-17T03:45:43.606Z,-2.88
2023-02-17T03:48:12.384Z,-2.89
2023-02-17T03:50:42.214Z,-2.90
2023-02-17T03:53:12.109Z,-2.92
2023-02-17T03:55:40.434Z,-2.95
2023-02-17T03:58:08.600Z,-2.97
2023-02-17T04:00:37.025Z,-2.95
2023-02-17T04:03:05.365Z,-2.95
2023-02-17T04:05:33.620Z,-2.96
2023-02-17T04:08:02.388Z,-2.95
2023-02-17T04:10:30.880Z,-2.95
2023-02-17T04:12:59.045Z,-2.95
2023-02-17T04:15:27.850Z,-2.94
2023-02-17T04:17:56.352Z,-2.96
2023-02-17T04:20:24.575Z,-3.00
2023-02-17T04:22:52.725Z,-3.05
2023-02-17T04:25:20.707Z,-3.12
2023-02-17T04:27:48.848Z,-3.18
2023-02-17T04:30:17.471Z,-3.22
2023-02-17T04:32:45.628Z,-3.27
2023-02-17T04:35:13.726Z,-3.32
2023-02-17T04:37:42.109Z,-3.34
2023-02-17T04:40:11.201Z,-3.39
2023-02-17T04:42:39.845Z,-3.41
2023-02-17T04:45:09.063Z,-3.42
2023-02-17T04:47:37.992Z,-3.42
2023-02-17T04:50:09.889Z,-3.38
2023-02-17T04:52:38.700Z,-3.34
2023-02-17T04:55:08.150Z,-3.30
2023-02-17T04:57:36.857Z,-3.26
2023-02-17T05:00:07.039Z,-3.20
2023-02-17T05:02:35.566Z,-3.18
2023-02-17T05:05:04.395Z,-3.13
2023-02-17T05:07:33.014Z,-3.09
2023-02-17T05:10:02.042Z,-3.08
2023-02-17T05:12:30.938Z,-3.05
2023-02-17T05:14:59.512Z,-3.01
2023-02-17T05:17:28.290Z,-2.99
2023-02-17T05:19:56.618Z,-2.99
2023-02-17T05:22:25.867Z,-2.97
2023-02-17T05:24:54.409Z,-2.97
2023-02-17T05:27:22.984Z,-2.98
2023-02-17T05:29:52.241Z,-2.99
2023-02-17T05:32:20.772Z,-3.02
2023-02-17T05:34:48.949Z,-3.08
2023-02-17T05:37:17.117Z,-3.11
2023-02-17T05:39:45.252Z,-3.16
2023-02-17T05:42:14.372Z,-3.21
2023-02-17T05:44:42.765Z,-3.24
2023-02-17T05:47:11.233Z,-3.28
2023-02-17T05:49:40.109Z,-3.29
2023-02-17T05:52:08.444Z,-3.27
2023-02-17T05:54:37.697Z,-3.22
2023-02-17T05:57:06.585Z,-3.14
2023-02-17T05:59:34.991Z,-3.05
2023-02-17T06:02:03.537Z,-2.96
2023-02-17T06:04:34.055Z,-2.84
2023-02-17T06:07:02.386Z,-2.67
2023-02-17T06:09:31.406Z,-2.51
2023-02-17T06:12:00.467Z,-2.35
2023-02-17T06:14:29.059Z,-2.23
2023-02-17T06:16:58.216Z,-2.16
2023-02-17T06:19:27.610Z,-2.11
2023-02-17T06:21:57.339Z,-2.07
2023-02-17T06:24:25.746Z,-2.09
2023-02-17T06:26:54.435Z,-2.10
2023-02-17T06:29:23.393Z,-2.05
2023-02-17T06:31:52.823Z,-1.93
2023-02-17T06:34:21.306Z,-1.73
2023-02-17T06:36:49.453Z,-1.48
2023-02-17T06:39:17.931Z,-1.27
2023-02-17T06:41:46.578Z,-1.10
2023-02-17T06:44:14.821Z,-0.97
2023-02-17T06:46:45.728Z,-0.83
2023-02-17T06:49:15.677Z,-0.54
2023-02-17T06:51:44.270Z,-0.36
2023-02-17T06:54:13.536Z,-0.16
2023-02-17T06:56:42.458Z,0.02
2023-02-17T06:59:11.562Z,0.26
2023-02-17T07:01:41.112Z,0.42
2023-02-17T07:04:09.846Z,0.68
2023-02-17T07:06:38.475Z,0.99
2023-02-17T07:09:08.216Z,1.16
2023-02-17T07:11:37.640Z,1.30
2023-02-17T07:14:08.580Z,1.58
2023-02-17T07:16:40.602Z,1.62
2023-02-17T07:19:12.133Z,1.70
2023-02-17T07:21:40.721Z,1.65
2023-02-17T07:24:10.396Z,1.58
2023-02-17T07:26:41.390Z,1.56
2023-02-17T07:29:10.678Z,1.53
2023-02-17T07:31:40.025Z,1.40
2023-02-17T07:34:08.482Z,1.34
2023-02-17T07:36:37.190Z,1.30
2023-02-17T07:39:05.824Z,1.18
2023-02-17T07:41:34.781Z,1.17
2023-02-17T07:44:10.420Z,1.11
2023-02-17T07:46:40.198Z,1.07
2023-02-17T07:49:08.982Z,0.99
2023-02-17T07:51:37.453Z,0.86
2023-02-17T07:54:05.873Z,0.79
2023-02-17T07:56:34.413Z,0.81
2023-02-17T07:59:03.623Z,0.86
2023-02-17T08:01:32.717Z,0.89
2023-02-17T08:04:01.613Z,0.86
2023-02-17T08:06:30.405Z,0.87
2023-02-17T08:09:17.925Z,0.95
2023-02-17T08:12:05.077Z,0.97
2023-02-17T08:14:34.205Z,0.93
2023-02-17T08:17:02.729Z,0.87
2023-02-17T08:19:46.717Z,0.78
2023-02-17T08:22:19.165Z,0.73
2023-02-17T08:24:48.343Z,0.69
2023-02-17T08:27:18.031Z,0.78
2023-02-17T08:29:46.822Z,0.86
2023-02-17T08:32:17.571Z,0.91
2023-02-17T08:34:46.153Z,1.00
2023-02-17T08:37:14.623Z,1.05
2023-02-17T08:39:42.842Z,1.18
2023-02-17T08:42:12.234Z,1.34
2023-02-17T08:44:40.693Z,1.44
2023-02-17T08:47:10.641Z,1.58
2023-02-17T08:49:40.558Z,1.68
2023-02-17T08:52:09.175Z,1.76
2023-02-17T08:54:38.101Z,1.81
2023-02-17T08:57:06.752Z,1.86
2023-02-17T08:59:35.544Z,1.90
2023-02-17T09:02:04.651Z,1.98
2023-02-17T09:04:33.296Z,2.12
2023-02-17T09:07:02.234Z,2.30
2023-02-17T09:09:31.924Z,2.48
2023-02-17T09:12:02.083Z,2.62
2023-02-17T09:14:30.831Z,2.71
2023-02-17T09:17:00.160Z,2.75
2023-02-17T09:19:28.773Z,2.78
2023-02-17T09:21:57.769Z,2.83
2023-02-17T09:24:26.769Z,2.92
2023-02-17T09:26:55.708Z,3.06
2023-02-17T09:29:25.605Z,3.20
2023-02-17T09:31:55.730Z,3.25
2023-02-17T09:34:27.600Z,3.26
2023-02-17T09:36:56.652Z,3.26
2023-02-17T09:39:27.279Z,3.24
2023-02-17T09:41:56.870Z,3.29
2023-02-17T09:44:47.466Z,3.40
2023-02-17T09:47:24.219Z,3.51
2023-02-17T09:50:03.020Z,3.58
2023-02-17T09:52:49.594Z,3.58
2023-02-17T09:55:18.187Z,3.63
2023-02-17T09:57:52.266Z,3.70
2023-02-17T10:00:30.322Z,3.71
2023-02-17T10:03:18.356Z,3.74
2023-02-17T10:06:12.614Z,3.84
2023-02-17T10:09:01.979Z,3.92
2023-02-17T10:11:43.167Z,4.00
2023-02-17T10:14:26.859Z,4.07
2023-02-17T10:17:02.715Z,4.16
2023-02-17T10:20:03.740Z,4.21
2023-02-17T10:22:34.012Z,4.27
2023-02-17T10:25:13.803Z,4.35
2023-02-17T10:27:46.819Z,4.47
2023-02-17T10:30:40.033Z,4.60
2023-02-17T10:33:24.396Z,4.77
2023-02-17T10:36:03.860Z,4.86
2023-02-17T10:38:52.735Z,4.91
2023-02-17T10:41:33.252Z,4.93
2023-02-17T10:44:07.308Z,4.99
2023-02-17T10:46:35.784Z,5.14
2023-02-17T10:49:06.314Z,5.42
2023-02-17T10:51:35.574Z,5.71
2023-02-17T10:54:12.697Z,5.95
2023-02-17T10:56:53.673Z,6.16
2023-02-17T10:59:34.346Z,6.31
2023-02-17T11:02:19.237Z,6.51
2023-02-17T11:04:55.107Z,6.63
2023-02-17T11:07:33.126Z,6.77
2023-02-17T11:10:19.502Z,6.91
2023-02-17T11:12:49.930Z,7.07
2023-02-17T11:15:22.267Z,7.20
2023-02-17T11:17:51.466Z,7.38
2023-02-17T11:20:20.508Z,7.60
2023-02-17T11:23:03.251Z,7.76
2023-02-17T11:25:35.494Z,7.95
2023-02-17T11:28:07.586Z,8.00
2023-02-17T11:30:36.690Z,8.00
2023-02-17T11:33:30.213Z,8.02
2023-02-17T11:36:00.208Z,8.17
2023-02-17T11:38:50.257Z,8.31
2023-02-17T11:41:18.861Z,8.30
2023-02-17T11:44:01.572Z,8.23
2023-02-17T11:46:29.818Z,8.18
2023-02-17T11:49:17.156Z,8.12
2023-02-17T11:52:20.659Z,8.15
2023-02-17T11:55:15.386Z,8.24
2023-02-17T11:58:14.930Z,8.37
2023-02-17T12:00:52.436Z,8.53
2023-02-17T12:03:39.236Z,8.56
2023-02-17T12:06:34.898Z,8.56
2023-02-17T12:09:38.767Z,8.58
2023-02-17T12:12:23.122Z,8.54
2023-02-17T12:15:00.527Z,8.50
2023-02-17T12:17:39.170Z,8.38
2023-02-17T12:20:45.968Z,8.29
2023-02-17T12:23:42.172Z,8.22
2023-02-17T12:26:10.288Z,8.17
2023-02-17T12:28:44.809Z,8.12
2023-02-17T12:31:32.037Z,8.04
2023-02-17T12:34:18.762Z,7.98
2023-02-17T12:36:53.738Z,7.94
2023-02-17T12:39:43.400Z,7.93
2023-02-17T12:42:18.733Z,7.88
2023-02-17T12:45:04.960Z,7.83
2023-02-17T12:48:04.113Z,7.81
2023-02-17T12:50:35.971Z,7.79
2023-02-17T12:53:18.009Z,7.79
2023-02-17T12:55:53.586Z,7.80
2023-02-17T12:58:28.001Z,7.80
2023-02-17T13:01:11.680Z,7.79
2023-02-17T13:03:40.354Z,7.78
2023-02-17T13:06:30.520Z,7.75
2023-02-17T13:09:09.416Z,7.71
2023-02-17T13:11:38.852Z,7.62
2023-02-17T13:14:27.711Z,7.59
2023-02-17T13:16:56.620Z,7.52
2023-02-17T13:19:30.958Z,7.45
2023-02-17T13:22:02.576Z,7.41
2023-02-17T13:24:34.560Z,7.40
2023-02-17T13:27:20.579Z,7.40
2023-02-17T13:30:05.743Z,7.36
2023-02-17T13:32:36.504Z,7.29
2023-02-17T13:35:30.748Z,7.23
2023-02-17T13:37:59.359Z,7.15
2023-02-17T13:40:30.774Z,7.09
2023-02-17T13:43:10.256Z,7.01
2023-02-17T13:45:41.709Z,6.96
2023-02-17T13:48:30.468Z,6.94
2023-02-17T13:51:00.227Z,6.91
2023-02-17T13:53:42.384Z,6.89
2023-02-17T13:56:29.928Z,6.87
2023-02-17T13:59:18.590Z,6.85
2023-02-17T14:01:47.667Z,6.82
2023-02-17T14:04:28.253Z,6.79
2023-02-17T14:06:59.665Z,6.75
2023-02-17T14:09:31.624Z,6.68
2023-02-17T14:12:04.448Z,6.64
2023-02-17T14:14:36.678Z,6.60
2023-02-17T14:17:27.080Z,6.53
2023-02-17T14:19:55.762Z,6.45
2023-02-17T14:22:23.869Z,6.38
2023-02-17T14:25:27.309Z,6.34
2023-02-17T14:27:56.673Z,6.28
2023-02-17T14:30:35.730Z,6.21
2023-02-17T14:33:20.557Z,6.19
2023-02-17T14:36:02.951Z,6.16
2023-02-17T14:38:36.830Z,6.14
2023-02-17T14:41:06.537Z,6.10
2023-02-17T14:43:36.479Z,6.06
2023-02-17T14:46:05.917Z,6.01
2023-02-17T14:48:35.402Z,5.93
2023-02-17T14:51:12.750Z,5.87
2023-02-17T14:53:41.307Z,5.82
2023-02-17T14:56:35.060Z,5.75
2023-02-17T14:59:04.193Z,5.72
2023-02-17T15:01:33.388Z,5.69
2023-02-17T15:04:03.173Z,5.67
2023-02-17T15:06:43.869Z,5.63
2023-02-17T15:09:18.936Z,5.61
2023-02-17T15:11:49.562Z,5.57
2023-02-17T15:14:20.343Z,5.55
2023-02-17T15:16:49.286Z,5.53
2023-02-17T15:19:20.854Z,5.51
2023-02-17T15:21:51.190Z,5.44
2023-02-17T15:24:24.232Z,5.41
2023-02-17T15:26:54.789Z,5.38
2023-02-17T15:29:25.230Z,5.33
2023-02-17T15:31:56.512Z,5.27
2023-02-17T15:34:32.839Z,5.22
2023-02-17T15:37:02.685Z,5.18
2023-02-17T15:39:31.742Z,5.16
2023-02-17T15:42:07.444Z,5.12
2023-02-17T15:44:43.302Z,5.10
2023-02-17T15:47:18.881Z,5.07
2023-02-17T15:49:47.385Z,5.04
2023-02-17T15:52:15.941Z,5.04
2023-02-17T15:54:45.064Z,5.05
2023-02-17T15:57:22.211Z,5.06
2023-02-17T15:59:51.485Z,5.05
2023-02-17T16:02:22.921Z,5.07
2023-02-17T16:04:52.198Z,5.08
2023-02-17T16:07:21.940Z,5.10
2023-02-17T16:09:51.244Z,5.13
2023-02-17T16:12:27.393Z,5.13
2023-02-17T16:14:57.588Z,5.11
2023-02-17T16:17:27.231Z,5.08
2023-02-17T16:19:55.721Z,5.04
2023-02-17T16:22:24.412Z,5.03
2023-02-17T16:24:53.127Z,4.99
2023-02-17T16:27:21.764Z,4.90
2023-02-17T16:29:50.253Z,4.83
2023-02-17T16:32:18.839Z,4.75
2023-02-17T16:34:48.808Z,4.70
2023-02-17T16:37:18.225Z,4.69
2023-02-17T16:39:47.041Z,4.65
2023-02-17T16:42:16.062Z,4.62
2023-02-17T16:44:44.549Z,4.59
2023-02-17T16:47:21.012Z,4.56
2023-02-17T16:49:50.568Z,4.55
2023-02-17T16:52:27.394Z,4.53
2023-02-17T16:54:55.702Z,4.48
2023-02-17T16:57:24.088Z,4.44
2023-02-17T16:59:52.623Z,4.36
2023-02-17T17:02:21.930Z,4.30
2023-02-17T17:04:50.739Z,4.24
2023-02-17T17:07:19.304Z,4.19
2023-02-17T17:10:14.750Z,4.13
2023-02-17T17:12:36.528Z,4.04
2023-02-17T17:15:05.211Z,3.94
2023-02-17T17:17:43.634Z,3.87
2023-02-17T17:20:18.490Z,3.79
2023-02-17T17:22:47.447Z,3.75
2023-02-17T17:25:16.133Z,3.74
2023-02-17T17:27:46.149Z,3.71
2023-02-17T17:30:21.544Z,3.70
2023-02-17T17:32:50.360Z,3.71
2023-02-17T17:35:19.393Z,3.72
2023-02-17T17:37:48.068Z,3.73
2023-02-17T17:40:19.597Z,3.75
2023-02-17T17:42:48.065Z,3.74
2023-02-17T17:45:16.666Z,3.70
2023-02-17T17:47:45.765Z,3.68
2023-02-17T17:50:20.408Z,3.66
2023-02-17T17:52:49.277Z,3.64
2023-02-17T17:55:17.995Z,3.57
2023-02-17T17:57:48.805Z,3.50
2023-02-17T18:00:18.438Z,3.50
2023-02-17T18:02:46.940Z,3.51
2023-02-17T18:05:16.542Z,3.53
2023-02-17T18:07:48.041Z,3.56
2023-02-17T18:10:17.416Z,3.60
2023-02-17T18:12:48.237Z,3.63
2023-02-17T18:15:17.735Z,3.67
2023-02-17T18:17:48.665Z,3.66
2023-02-17T18:20:17.286Z,3.67
2023-02-17T18:22:45.621Z,3.67
2023-02-17T18:25:13.794Z,3.65
2023-02-17T18:27:45.149Z,3.58
2023-02-17T18:30:18.674Z,3.56
2023-02-17T18:32:47.851Z,3.55
2023-02-17T18:35:17.329Z,3.54
2023-02-17T18:37:46.481Z,3.51
2023-02-17T18:40:18.468Z,3.49
2023-02-17T18:42:48.614Z,3.44
2023-02-17T18:45:17.904Z,3.36
2023-02-17T18:47:46.406Z,3.33
2023-02-17T18:50:16.602Z,3.30
2023-02-17T18:52:46.166Z,3.28
2023-02-17T18:55:15.480Z,3.28
2023-02-17T18:57:45.059Z,3.28
2023-02-17T19:00:16.878Z,3.30
2023-02-17T19:02:45.397Z,3.30
2023-02-17T19:05:14.427Z,3.33
2023-02-17T19:07:42.836Z,3.38
2023-02-17T19:10:11.554Z,3.42
2023-02-17T19:12:40.097Z,3.37
2023-02-17T19:15:08.994Z,3.35
2023-02-17T19:17:37.757Z,3.33
2023-02-17T19:20:08.233Z,3.29
2023-02-17T19:22:37.675Z,3.24
2023-02-17T19:25:07.091Z,3.16
2023-02-17T19:27:35.611Z,3.08
2023-02-17T19:30:05.031Z,3.04
2023-02-17T19:32:33.592Z,3.02
2023-02-17T19:35:02.562Z,3.00
2023-02-17T19:37:31.807Z,3.00
2023-02-17T19:40:00.456Z,3.01
2023-02-17T19:42:29.141Z,3.05
2023-02-17T19:44:57.280Z,3.09
2023-02-17T19:47:25.629Z,3.12
2023-02-17T19:49:53.655Z,3.15
2023-02-17T19:52:22.026Z,3.17
2023-02-17T19:54:50.809Z,3.23
2023-02-17T19:57:19.214Z,3.24
2023-02-17T19:59:47.637Z,3.18
2023-02-17T20:02:16.484Z,3.12
2023-02-17T20:04:45.877Z,3.05
2023-02-17T20:07:14.980Z,3.02
2023-02-17T20:09:43.677Z,2.98
2023-02-17T20:12:12.387Z,2.94
2023-02-17T20:14:42.691Z,2.94
2023-02-17T20:17:11.918Z,2.94
2023-02-17T20:19:41.303Z,2.94
2023-02-17T20:22:09.877Z,2.93
2023-02-17T20:24:41.030Z,2.91
2023-02-17T20:27:10.322Z,2.86
2023-02-17T20:29:38.819Z,2.84
2023-02-17T20:32:08.547Z,2.84
2023-02-17T20:34:39.693Z,2.82
2023-02-17T20:37:09.354Z,2.83
2023-02-17T20:39:42.369Z,2.87
2023-02-17T20:42:10.942Z,2.86
2023-02-17T20:44:39.486Z,2.86
2023-02-17T20:47:08.040Z,2.87
2023-02-17T20:49:37.156Z,2.88
2023-02-17T20:52:06.111Z,2.89
2023-02-17T20:54:35.042Z,2.90
2023-02-17T20:57:05.162Z,2.88
2023-02-17T20:59:33.996Z,2.88
2023-02-17T21:02:02.367Z,2.87
2023-02-17T21:04:32.487Z,2.85
2023-02-17T21:07:01.593Z,2.81
2023-02-17T21:09:30.653Z,2.80
2023-02-17T21:11:59.252Z,2.78
2023-02-17T21:14:27.639Z,2.76
2023-02-17T21:16:56.126Z,2.70
2023-02-17T21:19:24.770Z,2.65
2023-02-17T21:21:53.099Z,2.63
2023-02-17T21:24:21.982Z,2.62
2023-02-17T21:26:50.182Z,2.63
2023-02-17T21:29:18.618Z,2.65
2023-02-17T21:31:47.075Z,2.67
2023-02-17T21:34:16.167Z,2.65
2023-02-17T21:36:44.859Z,2.69
2023-02-17T21:39:13.052Z,2.73
2023-02-17T21:41:42.489Z,2.77
2023-02-17T21:44:31.642Z,2.83
2023-02-17T21:46:59.828Z,2.85
2023-02-17T21:49:28.022Z,2.85
2023-02-17T21:51:56.201Z,2.83
2023-02-17T21:54:24.265Z,2.79
2023-02-17T21:56:52.542Z,2.77
2023-02-17T21:59:20.589Z,2.76
2023-02-17T22:01:48.845Z,2.74
2023-02-17T22:04:17.886Z,2.73
2023-02-17T22:06:46.394Z,2.73
2023-02-17T22:09:18.218Z,2.75
2023-02-17T22:11:50.155Z,2.76
2023-02-17T22:14:21.032Z,2.79
2023-02-17T22:16:49.515Z,2.84
2023-02-17T22:19:25.191Z,2.87
2023-02-17T22:21:53.508Z,2.92
2023-02-17T22:24:22.018Z,2.95
2023-02-17T22:26:50.584Z,2.99
2023-02-17T22:29:19.451Z,3.03
2023-02-17T22:31:50.722Z,3.05
2023-02-17T22:34:19.474Z,3.08
2023-02-17T22:36:47.914Z,3.12
2023-02-17T22:39:16.142Z,3.15
2023-02-17T22:41:44.558Z,3.16
2023-02-17T22:44:13.129Z,3.16
2023-02-17T22:46:41.299Z,3.16
2023-02-17T22:49:09.567Z,3.15
2023-02-17T22:51:40.036Z,3.15
2023-02-17T22:54:09.640Z,3.17
2023-02-17T22:56:38.213Z,3.19
2023-02-17T22:59:06.662Z,3.16
2023-02-17T23:01:37.000Z,3.13
2023-02-17T23:04:06.535Z,3.13
2023-02-17T23:06:37.878Z,3.13
2023-02-17T23:09:08.795Z,3.14
2023-02-17T23:12:09.391Z,3.15
2023-02-17T23:14:40.789Z,3.16
2023-02-17T23:17:13.123Z,3.19
2023-02-17T23:19:42.495Z,3.23
2023-02-17T23:22:16.325Z,3.24
2023-02-17T23:24:46.744Z,3.24
2023-02-17T23:27:15.371Z,3.23
2023-02-17T23:29:43.710Z,3.20
2023-02-17T23:32:11.832Z,3.20
2023-02-17T23:34:40.526Z,3.21
2023-02-17T23:37:08.925Z,3.22
2023-02-17T23:39:38.389Z,3.17
2023-02-17T23:42:06.739Z,3.16
2023-02-17T23:44:35.486Z,3.14
2023-02-17T23:47:03.892Z,3.14
2023-02-17T23:49:32.073Z,3.16
2023-02-17T23:52:00.283Z,3.16
2023-02-17T23:54:29.128Z,3.15
2023-02-17T23:56:57.357Z,3.18
2023-02-17T23:59:25.448Z,3.22
